Jersey Mills, Pennsylvania
Current Conditions -  °F | °C
As of 7:35 AM on Monday 24 Nov 2014 (Local Time) from KN38 Reporting Station
Overcast Overcast  
Wind Chill: 55°   Ceiling: 1800
Heat Index: 55°   Visibility: 10mi
Dew Point: 52°   Wind: 17mph
Humidity: 88%   Direction: 210°SSW
Pressure: 29.51"   Gusts: 29mph
Location:  41.44°N, 77.41°W
Report Text: KN38 241235Z AUTO 21015G25KT 10SM SCT014 BKN018 OVC023 13/11 A2951 RMK AO2
Loading
Personal Weather Stations






























Interactive Weather Map New forecast layout! Learn more

10-Day Weather Forecast

Advertisements
Track Severe Weather on mobile